sensor_id;sensor_type;location;lat;lon;timestamp;pressure;altitude;pressure_sealevel;temperature;humidity
81909;BME280;71372;43.514;1.512;2023-10-09T00:01:03;100710.22;;;15.17;57.61
81909;BME280;71372;43.514;1.512;2023-10-09T00:03:44;100706.81;;;15.13;57.83
81909;BME280;71372;43.514;1.512;2023-10-09T00:06:10;100707.84;;;15.11;57.60
81909;BME280;71372;43.514;1.512;2023-10-09T00:08:39;100713.31;;;15.09;57.98
81909;BME280;71372;43.514;1.512;2023-10-09T00:11:10;100709.94;;;15.06;57.74
81909;BME280;71372;43.514;1.512;2023-10-09T00:13:45;100707.41;;;15.03;58.03
81909;BME280;71372;43.514;1.512;2023-10-09T00:16:21;100717.53;;;14.98;58.46
81909;BME280;71372;43.514;1.512;2023-10-09T00:19:04;100718.59;;;14.95;58.22
81909;BME280;71372;43.514;1.512;2023-10-09T00:21:59;100717.88;;;14.91;58.33
81909;BME280;71372;43.514;1.512;2023-10-09T00:24:46;100714.59;;;14.86;58.68
81909;BME280;71372;43.514;1.512;2023-10-09T00:27:15;100719.09;;;14.86;58.45
81909;BME280;71372;43.514;1.512;2023-10-09T00:29:45;100715.53;;;14.85;58.72
81909;BME280;71372;43.514;1.512;2023-10-09T00:32:12;100712.00;;;14.85;58.70
81909;BME280;71372;43.514;1.512;2023-10-09T00:34:53;100716.69;;;14.81;58.42
81909;BME280;71372;43.514;1.512;2023-10-09T00:37:24;100711.47;;;14.78;58.85
81909;BME280;71372;43.514;1.512;2023-10-09T00:39:52;100711.63;;;14.75;59.02
81909;BME280;71372;43.514;1.512;2023-10-09T00:42:24;100718.03;;;14.73;59.32
81909;BME280;71372;43.514;1.512;2023-10-09T00:45:00;100711.13;;;14.69;58.95
81909;BME280;71372;43.514;1.512;2023-10-09T00:47:30;100707.63;;;14.67;59.43
81909;BME280;71372;43.514;1.512;2023-10-09T00:50:03;100717.66;;;14.63;59.68
81909;BME280;71372;43.514;1.512;2023-10-09T00:52:37;100703.50;;;14.61;59.51
81909;BME280;71372;43.514;1.512;2023-10-09T00:55:17;100709.88;;;14.58;59.46
81909;BME280;71372;43.514;1.512;2023-10-09T00:57:49;100707.28;;;14.57;60.01
81909;BME280;71372;43.514;1.512;2023-10-09T01:00:16;100716.44;;;14.53;59.77
81909;BME280;71372;43.514;1.512;2023-10-09T01:03:05;100714.00;;;14.48;59.93
81909;BME280;71372;43.514;1.512;2023-10-09T01:05:40;100715.91;;;14.46;59.94
81909;BME280;71372;43.514;1.512;2023-10-09T01:08:25;100714.28;;;14.42;60.28
81909;BME280;71372;43.514;1.512;2023-10-09T01:11:13;100713.59;;;14.39;59.87
81909;BME280;71372;43.514;1.512;2023-10-09T01:13:55;100715.50;;;14.37;59.77
81909;BME280;71372;43.514;1.512;2023-10-09T01:16:38;100708.50;;;14.34;60.24
81909;BME280;71372;43.514;1.512;2023-10-09T01:19:08;100713.00;;;14.33;60.23
81909;BME280;71372;43.514;1.512;2023-10-09T01:21:46;100705.09;;;14.30;60.28
81909;BME280;71372;43.514;1.512;2023-10-09T01:24:12;100712.34;;;14.28;60.66
81909;BME280;71372;43.514;1.512;2023-10-09T01:26:39;100708.88;;;14.26;60.45
81909;BME280;71372;43.514;1.512;2023-10-09T01:29:07;100708.13;;;14.24;60.41
81909;BME280;71372;43.514;1.512;2023-10-09T01:31:44;100702.84;;;14.23;60.77
81909;BME280;71372;43.514;1.512;2023-10-09T01:34:32;100710.09;;;14.21;60.23
81909;BME280;71372;43.514;1.512;2023-10-09T01:37:17;100705.28;;;14.10;61.43
81909;BME280;71372;43.514;1.512;2023-10-09T01:39:53;100698.13;;;14.11;60.79
81909;BME280;71372;43.514;1.512;2023-10-09T01:42:20;100706.06;;;14.12;60.34
81909;BME280;71372;43.514;1.512;2023-10-09T01:45:09;100708.13;;;14.07;60.64
81909;BME280;71372;43.514;1.512;2023-10-09T01:47:41;100704.66;;;14.05;60.81
81909;BME280;71372;43.514;1.512;2023-10-09T01:50:12;100704.81;;;14.02;60.86
81909;BME280;71372;43.514;1.512;2023-10-09T01:52:46;100701.38;;;14.00;60.78
81909;BME280;71372;43.514;1.512;2023-10-09T01:55:12;100715.69;;;13.99;60.97
81909;BME280;71372;43.514;1.512;2023-10-09T01:58:04;100707.81;;;13.96;61.17
81909;BME280;71372;43.514;1.512;2023-10-09T02:00:43;100705.28;;;13.93;61.17
81909;BME280;71372;43.514;1.512;2023-10-09T02:03:19;100700.88;;;13.92;61.38
81909;BME280;71372;43.514;1.512;2023-10-09T02:05:49;100708.91;;;13.92;61.52
81909;BME280;71372;43.514;1.512;2023-10-09T02:08:19;100703.25;;;13.81;61.90
81909;BME280;71372;43.514;1.512;2023-10-09T02:10:53;100705.75;;;13.84;61.19
81909;BME280;71372;43.514;1.512;2023-10-09T02:13:22;100703.09;;;13.84;61.36
81909;BME280;71372;43.514;1.512;2023-10-09T02:15:58;100698.66;;;13.83;61.26
81909;BME280;71372;43.514;1.512;2023-10-09T02:18:40;100706.09;;;13.78;61.62
81909;BME280;71372;43.514;1.512;2023-10-09T02:21:18;100698.22;;;13.74;61.35
81909;BME280;71372;43.514;1.512;2023-10-09T02:23:58;100702.75;;;13.72;61.88
81909;BME280;71372;43.514;1.512;2023-10-09T02:26:28;100706.47;;;13.70;61.49
81909;BME280;71372;43.514;1.512;2023-10-09T02:29:14;100706.53;;;13.68;61.86
81909;BME280;71372;43.514;1.512;2023-10-09T02:31:40;100711.13;;;13.66;61.69
81909;BME280;71372;43.514;1.512;2023-10-09T02:34:07;100713.94;;;13.63;61.91
81909;BME280;71372;43.514;1.512;2023-10-09T02:36:41;100709.59;;;13.61;61.92
81909;BME280;71372;43.514;1.512;2023-10-09T02:39:08;100707.09;;;13.58;61.89
81909;BME280;71372;43.514;1.512;2023-10-09T02:41:56;100711.72;;;13.54;61.96
81909;BME280;71372;43.514;1.512;2023-10-09T02:44:42;100718.09;;;13.52;62.46
81909;BME280;71372;43.514;1.512;2023-10-09T02:47:20;100719.09;;;13.49;62.27
81909;BME280;71372;43.514;1.512;2023-10-09T02:49:51;100719.25;;;13.46;62.40
81909;BME280;71372;43.514;1.512;2023-10-09T02:52:17;100715.81;;;13.44;62.53
81909;BME280;71372;43.514;1.512;2023-10-09T02:54:45;100725.78;;;13.40;62.42
81909;BME280;71372;43.514;1.512;2023-10-09T02:57:13;100718.78;;;13.38;62.57
81909;BME280;71372;43.514;1.512;2023-10-09T02:59:48;100722.53;;;13.34;62.83
81909;BME280;71372;43.514;1.512;2023-10-09T03:02:19;100725.44;;;13.29;62.97
81909;BME280;71372;43.514;1.512;2023-10-09T03:04:45;100727.38;;;13.26;63.11
81909;BME280;71372;43.514;1.512;2023-10-09T03:07:11;100731.00;;;13.25;63.00
81909;BME280;71372;43.514;1.512;2023-10-09T03:09:39;100724.06;;;13.21;63.19
81909;BME280;71372;43.514;1.512;2023-10-09T03:12:07;100729.53;;;13.17;63.44
81909;BME280;71372;43.514;1.512;2023-10-09T03:14:37;100728.75;;;13.15;63.46
81909;BME280;71372;43.514;1.512;2023-10-09T03:17:06;100729.69;;;13.14;63.57
81909;BME280;71372;43.514;1.512;2023-10-09T03:19:37;100733.34;;;13.12;63.48
81909;BME280;71372;43.514;1.512;2023-10-09T03:22:06;100733.44;;;13.10;63.69
81909;BME280;71372;43.514;1.512;2023-10-09T03:24:36;100734.38;;;13.09;63.80
81909;BME280;71372;43.514;1.512;2023-10-09T03:27:03;100734.53;;;13.06;63.74
81909;BME280;71372;43.514;1.512;2023-10-09T03:29:29;100731.94;;;13.05;63.58
81909;BME280;71372;43.514;1.512;2023-10-09T03:31:55;100727.63;;;13.02;63.57
81909;BME280;71372;43.514;1.512;2023-10-09T03:34:23;100721.38;;;13.02;63.73
81909;BME280;71372;43.514;1.512;2023-10-09T03:36:49;100729.47;;;13.00;63.73
81909;BME280;71372;43.514;1.512;2023-10-09T03:39:32;100723.84;;;12.87;64.56
81909;BME280;71372;43.514;1.512;2023-10-09T03:42:04;100726.44;;;12.89;63.75
81909;BME280;71372;43.514;1.512;2023-10-09T03:44:31;100733.50;;;12.90;63.80
81909;BME280;71372;43.514;1.512;2023-10-09T03:47:00;100737.97;;;12.89;63.65
81909;BME280;71372;43.514;1.512;2023-10-09T03:49:28;100734.59;;;12.86;63.88
81909;BME280;71372;43.514;1.512;2023-10-09T03:51:55;100735.53;;;12.85;63.98
81909;BME280;71372;43.514;1.512;2023-10-09T03:54:21;100741.03;;;12.82;64.33
81909;BME280;71372;43.514;1.512;2023-10-09T03:56:48;100729.56;;;12.80;64.16
81909;BME280;71372;43.514;1.512;2023-10-09T03:59:21;100735.84;;;12.79;64.42
81909;BME280;71372;43.514;1.512;2023-10-09T04:01:47;100743.91;;;12.77;64.22
81909;BME280;71372;43.514;1.512;2023-10-09T04:04:19;100743.03;;;12.77;64.44
81909;BME280;71372;43.514;1.512;2023-10-09T04:06:48;100747.66;;;12.73;64.43
81909;BME280;71372;43.514;1.512;2023-10-09T04:09:15;100745.94;;;12.72;64.38
81909;BME280;71372;43.514;1.512;2023-10-09T04:11:47;100746.94;;;12.70;64.67
81909;BME280;71372;43.514;1.512;2023-10-09T04:14:23;100741.69;;;12.68;65.18
81909;BME280;71372;43.514;1.512;2023-10-09T04:16:59;100750.66;;;12.66;64.73
81909;BME280;71372;43.514;1.512;2023-10-09T04:19:51;100742.88;;;12.61;65.21
81909;BME280;71372;43.514;1.512;2023-10-09T04:22:40;100749.25;;;12.58;65.21
81909;BME280;71372;43.514;1.512;2023-10-09T04:25:22;100747.63;;;12.54;65.41
81909;BME280;71372;43.514;1.512;2023-10-09T04:28:08;100745.97;;;12.52;65.66
81909;BME280;71372;43.514;1.512;2023-10-09T04:30:41;100750.44;;;12.51;65.64
81909;BME280;71372;43.514;1.512;2023-10-09T04:33:12;100742.50;;;12.50;65.58
81909;BME280;71372;43.514;1.512;2023-10-09T04:36:04;100746.19;;;12.47;65.78
81909;BME280;71372;43.514;1.512;2023-10-09T04:38:46;100743.59;;;12.46;65.42
81909;BME280;71372;43.514;1.512;2023-10-09T04:41:40;100738.44;;;12.41;65.36
81909;BME280;71372;43.514;1.512;2023-10-09T04:44:09;100736.78;;;12.39;65.73
81909;BME280;71372;43.514;1.512;2023-10-09T04:46:48;100744.91;;;12.36;65.82
81909;BME280;71372;43.514;1.512;2023-10-09T04:49:33;100747.78;;;12.31;65.80
81909;BME280;71372;43.514;1.512;2023-10-09T04:52:16;100739.03;;;12.27;66.07
81909;BME280;71372;43.514;1.512;2023-10-09T04:54:51;100745.41;;;12.25;65.95
81909;BME280;71372;43.514;1.512;2023-10-09T05:00:12;100745.53;;;12.22;66.02
81909;BME280;71372;43.514;1.512;2023-10-09T05:02:57;100751.00;;;12.19;66.17
81909;BME280;71372;43.514;1.512;2023-10-09T05:05:26;100746.59;;;12.18;66.45
81909;BME280;71372;43.514;1.512;2023-10-09T05:08:12;100747.66;;;12.14;66.51
81909;BME280;71372;43.514;1.512;2023-10-09T05:10:55;100753.94;;;12.13;66.52
81909;BME280;71372;43.514;1.512;2023-10-09T05:13:31;100747.81;;;12.11;66.72
81909;BME280;71372;43.514;1.512;2023-10-09T05:16:13;100753.22;;;12.09;66.65
81909;BME280;71372;43.514;1.512;2023-10-09T05:18:51;100753.31;;;12.06;66.33
81909;BME280;71372;43.514;1.512;2023-10-09T05:21:38;100755.13;;;12.06;66.44
81909;BME280;71372;43.514;1.512;2023-10-09T05:24:07;100756.50;;;11.94;67.41
81909;BME280;71372;43.514;1.512;2023-10-09T05:26:44;100762.72;;;11.94;66.59
81909;BME280;71372;43.514;1.512;2023-10-09T05:32:07;100761.84;;;11.94;66.89
81909;BME280;71372;43.514;1.512;2023-10-09T05:34:40;100763.72;;;11.92;66.74
81909;BME280;71372;43.514;1.512;2023-10-09T05:37:25;100768.19;;;11.91;66.79
81909;BME280;71372;43.514;1.512;2023-10-09T05:39:52;100765.59;;;11.90;66.79
81909;BME280;71372;43.514;1.512;2023-10-09T05:42:28;100768.34;;;11.88;66.96
81909;BME280;71372;43.514;1.512;2023-10-09T05:45:04;100768.41;;;11.87;66.86
81909;BME280;71372;43.514;1.512;2023-10-09T05:50:27;100772.94;;;11.85;67.00
81909;BME280;71372;43.514;1.512;2023-10-09T05:52:55;100781.84;;;11.84;67.19
81909;BME280;71372;43.514;1.512;2023-10-09T05:55:25;100780.97;;;11.83;67.12
81909;BME280;71372;43.514;1.512;2023-10-09T05:57:52;100785.41;;;11.84;66.73
81909;BME280;71372;43.514;1.512;2023-10-09T06:00:36;100789.03;;;11.82;66.96
81909;BME280;71372;43.514;1.512;2023-10-09T06:03:21;100798.00;;;11.81;66.98
81909;BME280;71372;43.514;1.512;2023-10-09T06:05:48;100795.38;;;11.79;67.20
81909;BME280;71372;43.514;1.512;2023-10-09T06:08:34;100796.34;;;11.77;67.30
81909;BME280;71372;43.514;1.512;2023-10-09T06:11:14;100799.81;;;11.79;67.35
81909;BME280;71372;43.514;1.512;2023-10-09T06:14:01;100806.06;;;11.79;67.30
81909;BME280;71372;43.514;1.512;2023-10-09T06:16:42;100814.84;;;11.81;67.42
81909;BME280;71372;43.514;1.512;2023-10-09T06:19:08;100811.25;;;11.82;67.26
81909;BME280;71372;43.514;1.512;2023-10-09T06:21:38;100812.88;;;11.86;67.30
81909;BME280;71372;43.514;1.512;2023-10-09T06:24:08;100811.03;;;11.88;67.09
81909;BME280;71372;43.514;1.512;2023-10-09T06:26:44;100816.22;;;11.91;67.22
81909;BME280;71372;43.514;1.512;2023-10-09T06:29:29;100810.75;;;11.94;67.28
81909;BME280;71372;43.514;1.512;2023-10-09T06:32:06;100811.50;;;11.98;67.31
81909;BME280;71372;43.514;1.512;2023-10-09T06:37:21;100812.09;;;12.05;67.32
81909;BME280;71372;43.514;1.512;2023-10-09T06:39:55;100804.78;;;12.10;67.34
81909;BME280;71372;43.514;1.512;2023-10-09T06:42:22;100807.25;;;12.14;67.16
81909;BME280;71372;43.514;1.512;2023-10-09T06:45:12;100808.81;;;12.20;67.20
81909;BME280;71372;43.514;1.512;2023-10-09T06:47:48;100814.81;;;12.25;67.24
81909;BME280;71372;43.514;1.512;2023-10-09T06:50:44;100813.72;;;12.29;67.27
81909;BME280;71372;43.514;1.512;2023-10-09T06:53:21;100817.09;;;12.34;67.20
81909;BME280;71372;43.514;1.512;2023-10-09T06:55:54;100818.53;;;12.41;67.30
81909;BME280;71372;43.514;1.512;2023-10-09T06:58:32;100821.81;;;12.48;67.21
81909;BME280;71372;43.514;1.512;2023-10-09T07:01:13;100819.72;;;12.54;67.33
81909;BME280;71372;43.514;1.512;2023-10-09T07:04:02;100823.81;;;12.63;67.28
81909;BME280;71372;43.514;1.512;2023-10-09T07:06:47;100822.53;;;12.72;67.19
81909;BME280;71372;43.514;1.512;2023-10-09T07:09:14;100832.16;;;12.76;67.68
81909;BME280;71372;43.514;1.512;2023-10-09T07:11:44;100824.53;;;12.87;67.20
81909;BME280;71372;43.514;1.512;2023-10-09T07:14:15;100824.91;;;12.98;66.69
81909;BME280;71372;43.514;1.512;2023-10-09T07:19:27;100828.19;;;13.24;66.55
81909;BME280;71372;43.514;1.512;2023-10-09T07:22:17;100833.84;;;13.36;66.48
81909;BME280;71372;43.514;1.512;2023-10-09T07:27:25;100833.41;;;13.64;66.46
81909;BME280;71372;43.514;1.512;2023-10-09T07:30:14;100836.28;;;13.79;66.06
81909;BME280;71372;43.514;1.512;2023-10-09T07:33:00;100837.31;;;13.93;66.13
81909;BME280;71372;43.514;1.512;2023-10-09T07:35:48;100847.34;;;14.07;66.23
81909;BME280;71372;43.514;1.512;2023-10-09T07:38:22;100838.66;;;14.21;65.99
81909;BME280;71372;43.514;1.512;2023-10-09T07:40:51;100839.59;;;14.37;65.61
81909;BME280;71372;43.514;1.512;2023-10-09T07:43:34;100848.59;;;14.53;65.26
81909;BME280;71372;43.514;1.512;2023-10-09T07:46:10;100845.19;;;14.67;65.12
81909;BME280;71372;43.514;1.512;2023-10-09T07:49:05;100850.63;;;14.83;64.93
81909;BME280;71372;43.514;1.512;2023-10-09T07:51:50;100846.25;;;14.98;64.96
81909;BME280;71372;43.514;1.512;2023-10-09T07:54:18;100844.72;;;15.09;64.49
81909;BME280;71372;43.514;1.512;2023-10-09T07:56:58;100843.00;;;15.24;64.44
81909;BME280;71372;43.514;1.512;2023-10-09T07:59:35;100848.56;;;15.37;64.27
81909;BME280;71372;43.514;1.512;2023-10-09T08:02:21;100850.47;;;15.50;64.09
81909;BME280;71372;43.514;1.512;2023-10-09T08:05:00;100860.41;;;15.66;63.73
81909;BME280;71372;43.514;1.512;2023-10-09T08:07:52;100861.25;;;15.82;63.49
81909;BME280;71372;43.514;1.512;2023-10-09T08:10:23;100848.84;;;15.95;63.26
81909;BME280;71372;43.514;1.512;2023-10-09T08:12:49;100865.91;;;16.10;63.02
81909;BME280;71372;43.514;1.512;2023-10-09T08:15:16;100864.25;;;16.23;63.04
81909;BME280;71372;43.514;1.512;2023-10-09T08:17:55;100863.44;;;16.37;62.83
81909;BME280;71372;43.514;1.512;2023-10-09T08:20:36;100857.25;;;16.51;62.53
81909;BME280;71372;43.514;1.512;2023-10-09T08:23:38;100855.34;;;16.67;62.37
81909;BME280;71372;43.514;1.512;2023-10-09T08:26:17;100851.84;;;16.81;62.23
81909;BME280;71372;43.514;1.512;2023-10-09T08:28:58;100859.84;;;16.97;61.92
81909;BME280;71372;43.514;1.512;2023-10-09T08:31:49;100863.31;;;17.13;61.82
81909;BME280;71372;43.514;1.512;2023-10-09T08:34:22;100857.84;;;17.29;61.57
81909;BME280;71372;43.514;1.512;2023-10-09T08:36:52;100862.25;;;17.44;61.16
81909;BME280;71372;43.514;1.512;2023-10-09T08:39:19;100863.09;;;17.59;61.15
81909;BME280;71372;43.514;1.512;2023-10-09T08:41:52;100866.66;;;17.73;60.60
81909;BME280;71372;43.514;1.512;2023-10-09T08:44:19;100866.59;;;17.88;60.42
81909;BME280;71372;43.514;1.512;2023-10-09T08:46:49;100859.25;;;18.04;60.03
81909;BME280;71372;43.514;1.512;2023-10-09T08:49:17;100857.47;;;18.17;59.94
81909;BME280;71372;43.514;1.512;2023-10-09T08:51:44;100862.69;;;18.33;59.71
81909;BME280;71372;43.514;1.512;2023-10-09T08:54:12;100854.56;;;18.47;59.38
81909;BME280;71372;43.514;1.512;2023-10-09T08:56:41;100858.03;;;18.62;59.09
81909;BME280;71372;43.514;1.512;2023-10-09T08:59:16;100858.94;;;18.75;59.15
81909;BME280;71372;43.514;1.512;2023-10-09T09:01:49;100857.84;;;18.90;58.52
81909;BME280;71372;43.514;1.512;2023-10-09T09:04:42;100852.28;;;19.06;58.07
81909;BME280;71372;43.514;1.512;2023-10-09T09:07:29;100847.59;;;19.21;57.81
81909;BME280;71372;43.514;1.512;2023-10-09T09:09:59;100848.44;;;19.34;58.03
81909;BME280;71372;43.514;1.512;2023-10-09T09:12:46;100849.06;;;19.50;57.67
81909;BME280;71372;43.514;1.512;2023-10-09T09:15:16;100848.75;;;19.68;57.02
81909;BME280;71372;43.514;1.512;2023-10-09T09:17:47;100849.44;;;19.82;56.93
81909;BME280;71372;43.514;1.512;2023-10-09T09:20:22;100851.00;;;19.98;56.31
81909;BME280;71372;43.514;1.512;2023-10-09T09:22:55;100843.81;;;20.09;56.06
81909;BME280;71372;43.514;1.512;2023-10-09T09:25:39;100847.44;;;20.21;55.56
81909;BME280;71372;43.514;1.512;2023-10-09T09:28:11;100841.94;;;20.34;55.76
81909;BME280;71372;43.514;1.512;2023-10-09T09:30:39;100839.06;;;20.48;55.49
81909;BME280;71372;43.514;1.512;2023-10-09T09:33:28;100836.19;;;20.62;54.78
81909;BME280;71372;43.514;1.512;2023-10-09T09:36:06;100842.72;;;20.82;55.23
81909;BME280;71372;43.514;1.512;2023-10-09T09:38:34;100833.91;;;21.02;54.81
81909;BME280;71372;43.514;1.512;2023-10-09T09:41:08;100841.56;;;21.20;54.25
81909;BME280;71372;43.514;1.512;2023-10-09T09:43:36;100831.25;;;21.36;53.71
81909;BME280;71372;43.514;1.512;2023-10-09T09:46:07;100840.09;;;21.49;53.18
81909;BME280;71372;43.514;1.512;2023-10-09T09:48:38;100837.25;;;21.62;52.39
81909;BME280;71372;43.514;1.512;2023-10-09T09:51:13;100834.25;;;21.76;51.96
81909;BME280;71372;43.514;1.512;2023-10-09T09:53:40;100831.28;;;21.91;52.16
81909;BME280;71372;43.514;1.512;2023-10-09T09:56:07;100835.47;;;22.06;51.87
81909;BME280;71372;43.514;1.512;2023-10-09T09:58:38;100835.03;;;22.22;51.38
81909;BME280;71372;43.514;1.512;2023-10-09T10:01:10;100830.03;;;22.38;50.77
81909;BME280;71372;43.514;1.512;2023-10-09T10:03:53;100827.00;;;22.52;50.07
81909;BME280;71372;43.514;1.512;2023-10-09T10:06:21;100830.75;;;22.61;48.61
81909;BME280;71372;43.514;1.512;2023-10-09T10:08:52;100828.31;;;22.79;49.29
81909;BME280;71372;43.514;1.512;2023-10-09T10:14:13;100820.34;;;23.08;48.13
81909;BME280;71372;43.514;1.512;2023-10-09T10:17:00;100819.16;;;23.21;45.71
81909;BME280;71372;43.514;1.512;2023-10-09T10:22:47;100808.81;;;23.55;47.33
81909;BME280;71372;43.514;1.512;2023-10-09T10:28:23;100791.75;;;23.84;45.57
81909;BME280;71372;43.514;1.512;2023-10-09T10:31:05;100795.91;;;23.98;45.97
81909;BME280;71372;43.514;1.512;2023-10-09T10:36:19;100785.31;;;24.24;45.38
81909;BME280;71372;43.514;1.512;2023-10-09T10:39:17;100781.16;;;24.39;43.82
81909;BME280;71372;43.514;1.512;2023-10-09T10:41:54;100780.72;;;24.53;43.99
81909;BME280;71372;43.514;1.512;2023-10-09T10:44:27;100787.28;;;24.60;43.60
81909;BME280;71372;43.514;1.512;2023-10-09T10:47:09;100776.81;;;24.75;44.25
81909;BME280;71372;43.514;1.512;2023-10-09T10:50:02;100788.09;;;24.90;44.28
81909;BME280;71372;43.514;1.512;2023-10-09T10:53:13;100784.34;;;25.00;42.99
81909;BME280;71372;43.514;1.512;2023-10-09T10:55:57;100778.16;;;25.08;42.82
81909;BME280;71372;43.514;1.512;2023-10-09T10:58:23;100781.69;;;25.18;43.27
81909;BME280;71372;43.514;1.512;2023-10-09T11:00:56;100780.47;;;25.30;42.87
81909;BME280;71372;43.514;1.512;2023-10-09T11:03:22;100773.28;;;25.39;42.81
81909;BME280;71372;43.514;1.512;2023-10-09T11:06:00;100771.50;;;25.48;42.36
81909;BME280;71372;43.514;1.512;2023-10-09T11:08:46;100769.00;;;25.54;42.31
81909;BME280;71372;43.514;1.512;2023-10-09T11:11:23;100759.38;;;25.60;42.37
81909;BME280;71372;43.514;1.512;2023-10-09T11:13:49;100762.19;;;25.68;42.11
81909;BME280;71372;43.514;1.512;2023-10-09T11:16:25;100758.97;;;25.82;41.70
81909;BME280;71372;43.514;1.512;2023-10-09T11:19:00;100757.72;;;25.94;41.57
81909;BME280;71372;43.514;1.512;2023-10-09T11:21:38;100755.63;;;26.06;41.13
81909;BME280;71372;43.514;1.512;2023-10-09T11:24:08;100748.66;;;26.12;41.26
81909;BME280;71372;43.514;1.512;2023-10-09T11:26:50;100746.00;;;26.20;41.07
81909;BME280;71372;43.514;1.512;2023-10-09T11:29:23;100748.66;;;26.30;40.96
81909;BME280;71372;43.514;1.512;2023-10-09T11:32:07;100741.69;;;26.35;40.59
81909;BME280;71372;43.514;1.512;2023-10-09T11:34:43;100740.38;;;26.39;40.52
81909;BME280;71372;43.514;1.512;2023-10-09T11:37:22;100731.06;;;26.50;40.57
81909;BME280;71372;43.514;1.512;2023-10-09T11:39:57;100728.22;;;26.60;40.17
81909;BME280;71372;43.514;1.512;2023-10-09T11:42:25;100720.78;;;26.70;40.20
81909;BME280;71372;43.514;1.512;2023-10-09T11:45:27;100717.94;;;26.79;38.56
81909;BME280;71372;43.514;1.512;2023-10-09T11:48:18;100715.25;;;26.88;38.85
81909;BME280;71372;43.514;1.512;2023-10-09T11:51:11;100705.03;;;26.90;39.12
81909;BME280;71372;43.514;1.512;2023-10-09T11:53:47;100701.16;;;27.00;39.71
81909;BME280;71372;43.514;1.512;2023-10-09T11:56:16;100697.78;;;27.06;39.30
81909;BME280;71372;43.514;1.512;2023-10-09T11:58:49;100695.25;;;27.13;38.38
81909;BME280;71372;43.514;1.512;2023-10-09T12:01:19;100682.44;;;27.14;38.42
81909;BME280;71372;43.514;1.512;2023-10-09T12:03:51;100680.41;;;27.24;38.29
81909;BME280;71372;43.514;1.512;2023-10-09T12:06:20;100682.47;;;27.30;37.83
81909;BME280;71372;43.514;1.512;2023-10-09T12:08:48;100679.09;;;27.36;37.95
81909;BME280;71372;43.514;1.512;2023-10-09T12:11:15;100671.91;;;27.43;37.02
81909;BME280;71372;43.514;1.512;2023-10-09T12:13:49;100671.06;;;27.51;37.21
81909;BME280;71372;43.514;1.512;2023-10-09T12:16:15;100664.59;;;27.60;37.87
81909;BME280;71372;43.514;1.512;2023-10-09T12:18:41;100660.34;;;27.65;37.15
81909;BME280;71372;43.514;1.512;2023-10-09T12:21:08;100663.06;;;27.65;36.15
81909;BME280;71372;43.514;1.512;2023-10-09T12:23:41;100658.66;;;27.73;37.40
81909;BME280;71372;43.514;1.512;2023-10-09T12:26:09;100652.31;;;27.80;36.94
81909;BME280;71372;43.514;1.512;2023-10-09T12:28:43;100647.38;;;27.84;36.64
81909;BME280;71372;43.514;1.512;2023-10-09T12:31:16;100649.75;;;27.87;36.11
81909;BME280;71372;43.514;1.512;2023-10-09T12:33:45;100643.06;;;27.89;36.11
81909;BME280;71372;43.514;1.512;2023-10-09T12:36:13;100642.06;;;27.99;36.18
81909;BME280;71372;43.514;1.512;2023-10-09T12:38:46;100644.63;;;28.08;35.91
81909;BME280;71372;43.514;1.512;2023-10-09T12:41:16;100639.63;;;28.12;35.83
81909;BME280;71372;43.514;1.512;2023-10-09T12:43:54;100644.94;;;28.13;35.01
81909;BME280;71372;43.514;1.512;2023-10-09T12:46:21;100632.78;;;28.16;34.52
81909;BME280;71372;43.514;1.512;2023-10-09T12:48:49;100636.03;;;28.19;34.34
81909;BME280;71372;43.514;1.512;2023-10-09T12:51:15;100635.34;;;28.25;34.58
81909;BME280;71372;43.514;1.512;2023-10-09T12:53:43;100637.41;;;28.32;33.97
81909;BME280;71372;43.514;1.512;2023-10-09T12:56:09;100629.50;;;28.37;34.00
81909;BME280;71372;43.514;1.512;2023-10-09T12:58:37;100627.13;;;28.42;33.91
81909;BME280;71372;43.514;1.512;2023-10-09T13:01:04;100626.41;;;28.48;33.53
81909;BME280;71372;43.514;1.512;2023-10-09T13:03:38;100623.13;;;28.52;33.62
81909;BME280;71372;43.514;1.512;2023-10-09T13:06:04;100624.16;;;28.60;33.32
81909;BME280;71372;43.514;1.512;2023-10-09T13:08:36;100617.25;;;28.64;32.53
81909;BME280;71372;43.514;1.512;2023-10-09T13:11:07;100619.31;;;28.70;32.85
81909;BME280;71372;43.514;1.512;2023-10-09T13:13:37;100616.88;;;28.75;32.87
81909;BME280;71372;43.514;1.512;2023-10-09T13:16:15;100609.00;;;28.80;32.44
81909;BME280;71372;43.514;1.512;2023-10-09T13:18:56;100610.50;;;28.82;32.39
81909;BME280;71372;43.514;1.512;2023-10-09T13:21:28;100607.06;;;28.89;32.43
81909;BME280;71372;43.514;1.512;2023-10-09T13:24:00;100602.97;;;28.93;32.73
81909;BME280;71372;43.514;1.512;2023-10-09T13:26:28;100599.31;;;29.00;32.38
81909;BME280;71372;43.514;1.512;2023-10-09T13:28:59;100591.78;;;29.02;32.34
81909;BME280;71372;43.514;1.512;2023-10-09T13:31:27;100592.56;;;29.11;32.29
81909;BME280;71372;43.514;1.512;2023-10-09T13:33:54;100590.50;;;29.13;31.78
81909;BME280;71372;43.514;1.512;2023-10-09T13:36:23;100587.41;;;29.16;31.57
81909;BME280;71372;43.514;1.512;2023-10-09T13:39:00;100587.88;;;29.20;31.15
81909;BME280;71372;43.514;1.512;2023-10-09T13:41:58;100584.25;;;29.27;30.83
81909;BME280;71372;43.514;1.512;2023-10-09T13:44:31;100582.63;;;29.33;31.16
81909;BME280;71372;43.514;1.512;2023-10-09T13:47:01;100577.47;;;29.38;30.88
81909;BME280;71372;43.514;1.512;2023-10-09T13:49:28;100570.75;;;29.40;30.96
81909;BME280;71372;43.514;1.512;2023-10-09T13:51:58;100571.06;;;29.46;30.64
81909;BME280;71372;43.514;1.512;2023-10-09T13:54:25;100564.41;;;29.48;30.05
81909;BME280;71372;43.514;1.512;2023-10-09T13:57:05;100572.75;;;29.47;29.01
81909;BME280;71372;43.514;1.512;2023-10-09T13:59:34;100579.94;;;29.56;30.26